Time;durP1;ratioP1;P1;durP2;ratioP2;P2;SDS_P1;SDS_P2;PMS_P1;PMS_P2;Temp;Humidity;BMP_temperature;BMP_pressure;BME280_temperature;BME280_humidity;BME280_pressure;Samples;Min_cycle;Max_cycle;Signal;HPM_P1;HPM_P2
2022/11/12 00:01:55;;;;;;;;;;;;;;;;;;4978387;28;20049;-82
2022/11/12 00:04:39;;;;;;;7.20;4.03;;;;;;;;;;4977260;28;20000;-85
2022/11/12 00:07:23;;;;;;;5.38;3.55;;;;;;;;;;4977020;28;20053;-85
2022/11/12 00:10:08;;;;;;;6.70;4.00;;;;;;;;;;4991404;28;20061;-85
2022/11/12 00:12:52;;;;;;;5.53;3.80;;;;;;;;;;4977431;28;20101;-85
2022/11/12 00:15:36;;;;;;;6.78;3.65;;;;;;;;;;4976310;28;20478;-84
2022/11/12 00:18:20;;;;;;;5.93;3.53;;;;;;;;;;4978179;28;20053;-84
2022/11/12 00:21:04;;;;;;;8.95;3.53;;;;;;;;;;4976354;28;20054;-85
2022/11/12 00:23:48;;;;;;;7.60;3.67;;;;;;;;;;4976853;28;20141;-83
2022/11/12 00:26:32;;;;;;;4.97;3.10;;;;;;;;;;4989420;28;20113;-83
2022/11/12 00:29:16;;;;;;;9.02;3.58;;;;;;;;;;4976599;28;20189;-83
2022/11/12 00:32:00;;;;;;;4.85;2.78;;;;;;;;;;4975545;28;20070;-85
2022/11/12 00:34:44;;;;;;;7.30;3.00;;;;;;;;;;4976435;28;20550;-84
2022/11/12 00:37:28;;;;;;;4.63;2.67;;;;;;;;;;4976449;28;20101;-85
2022/11/12 00:40:12;;;;;;;4.63;2.80;;;;;;;;;;4976856;28;20451;-85
2022/11/12 00:42:56;;;;;;;3.95;2.47;;;;;;;;;;4989214;28;20085;-84
2022/11/12 00:45:42;;;;;;;5.20;2.55;;;;;;;;;;4975886;28;20105;-83
2022/11/12 00:48:26;;;;;;;4.28;2.72;;;;;;;;;;4976105;28;20126;-85
2022/11/12 00:51:09;;;;;;;;;;;;;;;;;;4976312;28;20114;-82
2022/11/12 00:53:54;;;;;;;3.55;2.42;;;;;;;;;;4976050;28;19925;-85
2022/11/12 00:56:38;;;;;;;5.78;2.55;;;;;;;;;;4975946;28;20512;-84
2022/11/12 00:59:22;;;;;;;4.10;2.40;;;;;;;;;;4976366;28;20062;-84
2022/11/12 01:02:05;;;;;;;4.38;2.75;;;;;;;;;;4976602;28;20045;-85
2022/11/12 01:04:52;;;;;;;4.30;2.58;;;;;;;;;;4976280;28;20042;-84
2022/11/12 01:07:36;;;;;;;4.60;2.50;;;;;;;;;;4976205;28;20121;-84
2022/11/12 01:10:20;;;;;;;4.40;2.80;;;;;;;;;;4976217;28;20049;-85
2022/11/12 01:13:04;;;;;;;;;;;;;;;;;;4975760;28;20074;-81
2022/11/12 01:15:48;;;;;;;3.85;2.58;;;;;;;;;;4975845;28;20013;-84
2022/11/12 01:18:32;;;;;;;;;;;;;;;;;;4978022;28;20526;-81
2022/11/12 01:21:16;;;;;;;3.00;2.08;;;;;;;;;;4979489;28;20057;-84
2022/11/12 01:24:00;;;;;;;7.00;2.60;;;;;;;;;;4979634;28;20050;-82
2022/11/12 01:26:44;;;;;;;3.78;2.50;;;;;;;;;;4979859;28;20049;-83
2022/11/12 01:29:28;;;;;;;;;;;;;;;;;;4980576;28;20081;-83
2022/11/12 01:32:12;;;;;;;5.00;2.83;;;;;;;;;;4992393;28;19928;-84
2022/11/12 01:34:56;;;;;;;5.80;3.72;;;;;;;;;;4979379;28;20097;-83
2022/11/12 01:37:40;;;;;;;8.35;3.40;;;;;;;;;;4979591;28;20058;-84
2022/11/12 01:40:24;;;;;;;6.55;3.05;;;;;;;;;;4979819;28;20113;-83
2022/11/12 01:43:13;;;;;;;5.45;3.25;;;;;;;;;;4980223;28;20117;-83
2022/11/12 01:46:00;;;;;;;7.90;3.22;;;;;;;;;;4979563;28;20415;-83
2022/11/12 01:48:44;;;;;;;4.20;3.00;;;;;;;;;;4979297;28;20414;-85
2022/11/12 01:51:42;;;;;;;3.50;2.63;;;;;;;;;;4979316;28;20056;-84
2022/11/12 01:54:27;;;;;;;5.50;3.17;;;;;;;;;;4978575;28;20046;-84
2022/11/12 01:57:12;;;;;;;4.78;2.55;;;;;;;;;;4979029;28;20498;-83
2022/11/12 02:00:00;;;;;;;5.20;2.80;;;;;;;;;;4979247;28;20466;-84
2022/11/12 02:02:51;;;;;;;3.63;2.47;;;;;;;;;;4978764;28;20046;-83
2022/11/12 02:05:37;;;;;;;5.55;3.17;;;;;;;;;;4978139;28;20046;-84
2022/11/12 02:08:22;;;;;;;6.65;3.30;;;;;;;;;;4978121;28;20053;-84
2022/11/12 02:11:17;;;;;;;6.68;3.80;;;;;;;;;;4979248;28;20057;-84
2022/11/12 02:14:01;;;;;;;7.50;4.03;;;;;;;;;;4977099;28;20065;-84
2022/11/12 02:16:47;;;;;;;6.45;3.40;;;;;;;;;;4979185;28;20058;-84
2022/11/12 02:19:36;;;;;;;7.35;3.13;;;;;;;;;;4979118;28;20069;-84
2022/11/12 02:22:20;;;;;;;5.30;2.60;;;;;;;;;;4979021;28;20050;-85
2022/11/12 02:25:05;;;;;;;5.63;2.53;;;;;;;;;;4978600;28;20054;-84
2022/11/12 02:27:52;;;;;;;5.20;2.50;;;;;;;;;;4978504;28;20053;-83
2022/11/12 02:30:40;;;;;;;4.65;2.35;;;;;;;;;;4978014;28;20101;-84
2022/11/12 02:33:24;;;;;;;5.13;2.42;;;;;;;;;;4978633;28;20042;-84
2022/11/12 02:36:08;;;;;;;3.75;2.65;;;;;;;;;;4978574;28;20079;-84
2022/11/12 02:38:55;;;;;;;4.53;2.70;;;;;;;;;;4978491;28;20058;-84
2022/11/12 02:41:40;;;;;;;3.75;2.50;;;;;;;;;;4978417;28;20535;-84
2022/11/12 02:44:24;;;;;;;4.78;2.70;;;;;;;;;;4977945;28;20046;-82
2022/11/12 02:47:08;;;;;;;4.43;2.67;;;;;;;;;;4978090;28;20093;-85
2022/11/12 02:49:52;;;;;;;6.43;2.75;;;;;;;;;;4978520;28;20054;-84
2022/11/12 02:52:36;;;;;;;4.57;2.70;;;;;;;;;;4978263;28;20098;-84
2022/11/12 02:55:20;;;;;;;3.80;2.60;;;;;;;;;;4977780;28;20050;-84
2022/11/12 02:58:04;;;;;;;3.97;2.63;;;;;;;;;;4978415;28;20101;-84
2022/11/12 03:00:48;;;;;;;3.30;2.40;;;;;;;;;;4977265;28;20481;-84
2022/11/12 03:03:32;;;;;;;2.88;2.00;;;;;;;;;;4978045;28;20507;-84
2022/11/12 03:06:16;;;;;;;3.60;2.20;;;;;;;;;;4977710;28;20124;-84
2022/11/12 03:09:00;;;;;;;3.47;2.30;;;;;;;;;;4982777;28;20073;-84
2022/11/12 03:11:44;;;;;;;3.60;2.30;;;;;;;;;;4997228;28;20526;-84
2022/11/12 03:14:28;;;;;;;4.28;2.08;;;;;;;;;;4995579;28;20527;-84
2022/11/12 03:17:12;;;;;;;2.63;2.05;;;;;;;;;;4996923;28;20072;-84
2022/11/12 03:19:56;;;;;;;3.30;2.00;;;;;;;;;;4996723;28;20525;-84
2022/11/12 03:22:40;;;;;;;2.60;1.90;;;;;;;;;;4996856;28;20053;-83
2022/11/12 03:25:25;;;;;;;4.20;2.00;;;;;;;;;;4996342;28;20169;-83
2022/11/12 03:28:12;;;;;;;3.92;2.22;;;;;;;;;;4997176;28;20630;-83
2022/11/12 03:30:58;;;;;;;3.00;2.10;;;;;;;;;;4996540;28;20049;-85
2022/11/12 03:33:42;;;;;;;3.10;2.20;;;;;;;;;;4997120;28;20061;-84
2022/11/12 03:36:26;;;;;;;3.45;1.90;;;;;;;;;;4996931;28;20053;-84
2022/11/12 03:39:10;;;;;;;3.55;2.00;;;;;;;;;;4996735;28;20093;-84
2022/11/12 03:41:54;;;;;;;4.82;2.00;;;;;;;;;;4996409;28;20100;-84
2022/11/12 03:44:38;;;;;;;3.50;2.00;;;;;;;;;;4996240;28;20070;-84
2022/11/12 03:47:22;;;;;;;6.30;1.90;;;;;;;;;;4996661;28;20486;-85
2022/11/12 03:50:06;;;;;;;2.90;1.80;;;;;;;;;;4996758;28;20057;-84
2022/11/12 03:52:55;;;;;;;3.55;2.25;;;;;;;;;;4996209;28;20069;-84
2022/11/12 03:55:39;;;;;;;5.55;2.88;;;;;;;;;;4996067;28;20720;-83
2022/11/12 03:58:23;;;;;;;5.18;2.67;;;;;;;;;;4995869;28;20053;-84
2022/11/12 04:01:07;;;;;;;4.38;2.25;;;;;;;;;;4994838;28;20050;-85
2022/11/12 04:03:51;;;;;;;3.13;1.88;;;;;;;;;;4995770;28;20089;-84
2022/11/12 04:09:38;;;;;;;3.40;1.90;;;;;;;;;;4996034;28;20049;-83
2022/11/12 04:15:25;;;;;;;2.72;1.75;;;;;;;;;;4994190;28;20061;-83
2022/11/12 04:27:25;;;;;;;3.47;2.05;;;;;;;;;;4995761;28;20505;-82
2022/11/12 04:30:15;;;;;;;3.35;2.20;;;;;;;;;;4995138;28;20049;-83
2022/11/12 04:33:00;;;;;;;9.60;2.38;;;;;;;;;;4995146;28;20537;-82
2022/11/12 04:35:44;;;;;;;8.00;2.53;;;;;;;;;;4994513;28;20049;-83
2022/11/12 04:38:28;;;;;;;5.88;2.70;;;;;;;;;;4995190;28;20057;-82
2022/11/12 04:47:34;;;;;;;4.22;2.67;;;;;;;;;;4969408;28;20042;-84
2022/11/12 04:50:18;;;;;;;4.40;3.00;;;;;;;;;;4994494;28;20537;-84
2022/11/12 04:53:02;;;;;;;3.90;2.58;;;;;;;;;;4993929;28;20076;-83
2022/11/12 04:55:50;;;;;;;4.38;2.53;;;;;;;;;;4994136;28;20084;-82
2022/11/12 04:58:34;;;;;;;3.83;2.70;;;;;;;;;;4994628;28;20418;-82
2022/11/12 05:01:19;;;;;;;3.65;2.70;;;;;;;;;;4994531;28;20053;-82
2022/11/12 05:04:03;;;;;;;4.38;2.42;;;;;;;;;;4994258;28;20053;-83
2022/11/12 05:06:53;;;;;;;2.97;2.30;;;;;;;;;;4994559;28;20419;-83
2022/11/12 05:09:37;;;;;;;4.93;2.58;;;;;;;;;;4994110;28;20108;-83
2022/11/12 05:12:21;;;;;;;5.30;2.58;;;;;;;;;;4994518;28;20045;-84
2022/11/12 05:15:06;;;;;;;3.80;2.72;;;;;;;;;;4992354;28;20472;-84
2022/11/12 05:17:50;;;;;;;4.35;3.17;;;;;;;;;;4980394;28;20415;-84
2022/11/12 05:20:34;;;;;;;4.53;2.55;;;;;;;;;;4995984;28;20132;-84
2022/11/12 05:23:18;;;;;;;3.08;2.30;;;;;;;;;;4994854;28;20045;-84
2022/11/12 05:26:02;;;;;;;3.00;2.40;;;;;;;;;;4994452;28;20100;-84
2022/11/12 05:28:46;;;;;;;5.53;2.60;;;;;;;;;;4994461;28;20513;-84
2022/11/12 05:31:31;;;;;;;9.73;2.60;;;;;;;;;;4994439;28;20045;-84
2022/11/12 05:34:15;;;;;;;10.63;2.90;;;;;;;;;;4994077;28;20053;-84
2022/11/12 05:37:01;;;;;;;3.70;2.80;;;;;;;;;;4995040;28;20049;-84
2022/11/12 05:39:45;;;;;;;3.55;2.60;;;;;;;;;;4994254;28;20418;-83
2022/11/12 05:42:29;;;;;;;5.47;3.80;;;;;;;;;;4994662;28;20122;-84
2022/11/12 05:45:13;;;;;;;6.00;4.10;;;;;;;;;;4993886;28;20092;-83
2022/11/12 05:47:57;;;;;;;14.45;6.50;;;;;;;;;;4994460;28;20057;-83
2022/11/12 05:50:41;;;;;;;;;;;;;;;;;;4979578;28;20122;-81
2022/11/12 05:53:25;;;;;;;9.35;5.22;;;;;;;;;;4995019;28;19985;-83
2022/11/12 05:56:10;;;;;;;4.35;3.20;;;;;;;;;;4994039;28;20052;-83
2022/11/12 05:58:54;;;;;;;5.57;3.33;;;;;;;;;;4979923;28;20526;-83
2022/11/12 06:01:42;;;;;;;21.60;4.05;;;;;;;;;;4994549;28;20053;-84
2022/11/12 06:04:26;;;;;;;13.10;3.65;;;;;;;;;;4980916;28;20045;-84
2022/11/12 06:07:10;;;;;;;8.20;3.65;;;;;;;;;;4999320;28;20110;-84
2022/11/12 06:09:54;;;;;;;7.68;3.85;;;;;;;;;;4998244;28;20084;-84
2022/11/12 06:12:38;;;;;;;6.05;2.95;;;;;;;;;;4998439;28;20093;-84
2022/11/12 06:15:25;;;;;;;6.50;3.08;;;;;;;;;;4996370;28;20498;-83
2022/11/12 06:18:10;;;;;;;6.38;3.15;;;;;;;;;;4997962;28;20049;-83
2022/11/12 06:21:18;;;;;;;5.63;3.35;;;;;;;;;;4997346;28;20100;-83
2022/11/12 06:24:03;;;;;;;6.45;2.80;;;;;;;;;;4996657;28;20521;-85
2022/11/12 06:26:48;;;;;;;4.88;3.45;;;;;;;;;;4998447;28;20514;-85
2022/11/12 06:29:32;;;;;;;6.18;3.17;;;;;;;;;;4996849;28;20130;-84
2022/11/12 06:32:16;;;;;;;16.23;3.30;;;;;;;;;;4999455;28;20568;-84
2022/11/12 06:35:01;;;;;;;3.90;2.58;;;;;;;;;;4997122;28;20091;-84
2022/11/12 06:37:48;;;;;;;2.95;2.30;;;;;;;;;;4997006;28;20057;-83
2022/11/12 06:40:32;;;;;;;4.05;2.80;;;;;;;;;;4996141;28;20101;-83
2022/11/12 06:43:17;;;;;;;3.50;2.60;;;;;;;;;;4997320;28;20094;-83
2022/11/12 06:46:03;;;;;;;6.78;4.05;;;;;;;;;;4995607;28;20572;-82
2022/11/12 06:48:47;;;;;;;7.55;4.32;;;;;;;;;;4994629;28;20074;-84
2022/11/12 06:51:31;;;;;;;21.00;5.65;;;;;;;;;;4997614;28;20049;-84
2022/11/12 06:54:15;;;;;;;29.27;15.50;;;;;;;;;;4997512;28;20154;-84
2022/11/12 06:57:00;;;;;;;;;;;;;;;;;;4998918;28;20076;-82
2022/11/12 06:59:44;;;;;;;50.75;24.13;;;;;;;;;;4997731;28;19921;-83
2022/11/12 07:02:27;;;;;;;43.30;22.48;;;;;;;;;;4997896;28;20096;-83
2022/11/12 07:05:12;;;;;;;33.55;18.73;;;;;;;;;;4997387;28;20474;-83
2022/11/12 07:07:55;;;;;;;23.98;12.73;;;;;;;;;;4998715;28;20053;-82
2022/11/12 07:10:40;;;;;;;20.27;11.63;;;;;;;;;;4998585;28;20100;-83
2022/11/12 07:13:24;;;;;;;16.25;9.82;;;;;;;;;;4996738;28;20049;-84
2022/11/12 07:16:10;;;;;;;25.80;13.68;;;;;;;;;;4996391;28;20065;-83
2022/11/12 07:18:56;;;;;;;18.98;11.10;;;;;;;;;;4997863;28;20045;-84
2022/11/12 07:21:40;;;;;;;13.15;7.03;;;;;;;;;;4997800;28;20064;-84
2022/11/12 07:24:24;;;;;;;7.57;4.78;;;;;;;;;;4997515;28;20065;-84
2022/11/12 07:27:09;;;;;;;7.75;4.80;;;;;;;;;;4997577;28;20136;-84
2022/11/12 07:29:52;;;;;;;5.90;3.92;;;;;;;;;;4996778;28;20077;-82
2022/11/12 07:32:36;;;;;;;7.38;4.80;;;;;;;;;;4996990;28;20046;-83
2022/11/12 07:35:20;;;;;;;16.40;10.38;;;;;;;;;;4997342;28;20525;-84
2022/11/12 07:38:04;;;;;;;26.60;17.38;;;;;;;;;;4997966;28;20125;-82
2022/11/12 07:40:48;;;;;;;15.65;9.07;;;;;;;;;;4980310;28;20049;-83
2022/11/12 07:43:34;;;;;;;5.43;3.42;;;;;;;;;;4980384;28;20097;-84
2022/11/12 07:46:21;;;;;;;18.30;10.60;;;;;;;;;;4993475;28;20046;-84
2022/11/12 07:49:04;;;;;;;11.82;7.65;;;;;;;;;;4997261;28;20049;-84
2022/11/12 07:51:48;;;;;;;7.75;4.30;;;;;;;;;;4983107;28;20518;-84
2022/11/12 07:54:32;;;;;;;11.75;6.78;;;;;;;;;;4998256;28;20054;-85
2022/11/12 07:57:16;;;;;;;9.43;5.70;;;;;;;;;;4997409;28;20073;-84
2022/11/12 08:00:00;;;;;;;10.02;5.57;;;;;;;;;;4999031;28;20045;-84
2022/11/12 08:02:44;;;;;;;7.65;3.80;;;;;;;;;;4999307;28;20088;-86
2022/11/12 08:05:28;;;;;;;4.70;2.95;;;;;;;;;;5001450;28;20100;-85
2022/11/12 08:08:12;;;;;;;4.75;2.97;;;;;;;;;;5003368;28;20057;-85
2022/11/12 08:10:57;;;;;;;4.28;3.08;;;;;;;;;;4988434;28;20136;-85
2022/11/12 08:13:42;;;;;;;4.80;3.20;;;;;;;;;;4983748;28;20560;-85
2022/11/12 08:16:26;;;;;;;3.90;2.72;;;;;;;;;;4983680;28;20049;-88
2022/11/12 08:19:10;;;;;;;3.60;2.50;;;;;;;;;;4995910;28;20053;-83
2022/11/12 08:21:54;;;;;;;32.95;17.88;;;;;;;;;;4996589;28;20053;-83
2022/11/12 08:24:38;;;;;;;12.20;5.97;;;;;;;;;;4971025;28;20130;-84
2022/11/12 08:27:22;;;;;;;6.35;3.88;;;;;;;;;;4997911;28;20423;-84
2022/11/12 08:30:07;;;;;;;5.07;3.38;;;;;;;;;;4995875;28;20053;-85
2022/11/12 08:33:00;;;;;;;5.60;3.10;;;;;;;;;;4996192;28;20135;-84
2022/11/12 08:35:44;;;;;;;4.07;2.70;;;;;;;;;;4938424;28;20066;-86
2022/11/12 08:38:28;;;;;;;5.50;2.58;;;;;;;;;;4907671;28;20096;-85
2022/11/12 08:41:13;;;;;;;4.13;2.47;;;;;;;;;;4984890;28;20053;-85
2022/11/12 08:43:58;;;;;;;5.18;2.67;;;;;;;;;;4998815;28;20113;-84
2022/11/12 08:46:41;;;;;;;11.15;4.88;;;;;;;;;;4998019;28;20073;-85
2022/11/12 08:49:26;;;;;;;14.82;7.60;;;;;;;;;;4998079;28;20081;-84
2022/11/12 08:52:09;;;;;;;20.25;8.55;;;;;;;;;;4999083;28;20054;-85
2022/11/12 08:54:53;;;;;;;16.05;7.15;;;;;;;;;;4996793;28;20056;-85
2022/11/12 08:57:41;;;;;;;10.18;5.72;;;;;;;;;;4999859;28;20062;-83
2022/11/12 09:00:25;;;;;;;6.55;4.07;;;;;;;;;;4998512;28;20069;-83
2022/11/12 09:03:16;;;;;;;5.53;3.75;;;;;;;;;;4998490;28;20065;-84
2022/11/12 09:06:02;;;;;;;6.07;3.80;;;;;;;;;;4982032;28;20052;-85
2022/11/12 09:08:46;;;;;;;6.35;3.85;;;;;;;;;;4998449;28;20053;-85
2022/11/12 09:11:30;;;;;;;6.00;3.53;;;;;;;;;;4998168;28;20081;-85
2022/11/12 09:14:14;;;;;;;6.10;3.50;;;;;;;;;;4996586;28;20434;-84
2022/11/12 09:16:58;;;;;;;6.88;3.75;;;;;;;;;;4998059;28;20215;-85
2022/11/12 09:19:42;;;;;;;5.20;3.50;;;;;;;;;;4998026;28;20048;-85
2022/11/12 09:22:26;;;;;;;7.47;3.80;;;;;;;;;;4998637;28;20470;-85
2022/11/12 09:25:10;;;;;;;5.78;3.88;;;;;;;;;;4998163;28;20085;-84
2022/11/12 09:27:54;;;;;;;5.40;3.63;;;;;;;;;;4997001;28;20072;-86
2022/11/12 09:30:45;;;;;;;6.88;3.90;;;;;;;;;;4998554;28;20085;-87
2022/11/12 09:33:31;;;;;;;5.43;3.67;;;;;;;;;;5003699;28;20049;-87
2022/11/12 09:36:16;;;;;;;7.00;3.28;;;;;;;;;;5003016;28;20073;-83
2022/11/12 09:39:00;;;;;;;4.68;3.20;;;;;;;;;;5004332;28;20077;-85
2022/11/12 09:41:44;;;;;;;4.95;3.10;;;;;;;;;;5003690;28;20049;-84
2022/11/12 09:44:29;;;;;;;5.63;2.97;;;;;;;;;;5002367;28;20065;-84
2022/11/12 09:47:28;;;;;;;5.22;3.08;;;;;;;;;;5001427;28;20044;-82
2022/11/12 09:50:27;;;;;;;6.35;3.78;;;;;;;;;;5001212;28;20046;-84
2022/11/12 09:53:31;;;;;;;6.32;3.30;;;;;;;;;;5000692;28;20046;-84
2022/11/12 09:56:19;;;;;;;6.40;4.03;;;;;;;;;;4986836;28;20054;-84
2022/11/12 09:59:04;;;;;;;5.97;4.13;;;;;;;;;;4987773;28;20142;-83
2022/11/12 10:02:23;;;;;;;7.90;4.88;;;;;;;;;;5001590;28;20218;-83
2022/11/12 10:05:26;;;;;;;6.70;4.78;;;;;;;;;;5001177;28;20126;-84
2022/11/12 10:08:20;;;;;;;6.85;4.75;;;;;;;;;;4987922;28;20048;-84
2022/11/12 10:11:17;;;;;;;6.60;4.88;;;;;;;;;;5002326;28;20049;-84
2022/11/12 10:14:33;;;;;;;10.95;5.95;;;;;;;;;;5000676;28;20056;-84
2022/11/12 10:17:35;;;;;;;7.20;5.70;;;;;;;;;;5002607;28;20044;-84
2022/11/12 10:20:23;;;;;;;8.82;5.60;;;;;;;;;;5002821;28;20104;-84
2022/11/12 10:23:16;;;;;;;7.88;5.85;;;;;;;;;;5002626;28;20041;-84
2022/11/12 10:26:10;;;;;;;7.13;5.30;;;;;;;;;;5002236;28;20072;-84
2022/11/12 10:29:09;;;;;;;9.25;6.00;;;;;;;;;;5002634;28;20092;-84
2022/11/12 10:31:53;;;;;;;10.02;5.93;;;;;;;;;;5002515;28;20108;-84
2022/11/12 10:34:39;;;;;;;8.70;5.55;;;;;;;;;;5001673;28;20040;-84
2022/11/12 10:37:43;;;;;;;10.02;5.72;;;;;;;;;;5002094;28;20057;-85
2022/11/12 10:40:27;;;;;;;8.48;5.47;;;;;;;;;;5001837;28;20049;-85
2022/11/12 10:43:14;;;;;;;13.73;5.82;;;;;;;;;;5003034;28;20053;-85
2022/11/12 10:46:16;;;;;;;6.60;4.50;;;;;;;;;;5001512;28;20079;-85
2022/11/12 10:49:22;;;;;;;7.63;4.68;;;;;;;;;;5001544;28;20049;-86
2022/11/12 10:52:20;;;;;;;6.65;4.50;;;;;;;;;;5002305;28;20099;-84
2022/11/12 10:55:17;;;;;;;5.95;4.63;;;;;;;;;;5001677;28;20053;-86
2022/11/12 10:58:05;;;;;;;9.00;5.00;;;;;;;;;;5000837;28;20132;-84
2022/11/12 11:00:52;;;;;;;5.72;4.05;;;;;;;;;;5001989;28;20057;-87
2022/11/12 11:03:46;;;;;;;6.40;4.13;;;;;;;;;;5002776;28;20074;-86
2022/11/12 11:06:30;;;;;;;9.48;4.75;;;;;;;;;;5002707;28;20081;-86
2022/11/12 11:09:17;;;;;;;6.32;4.80;;;;;;;;;;5003072;28;20049;-88
2022/11/12 11:12:20;;;;;;;6.35;4.50;;;;;;;;;;4999251;28;20136;-88
2022/11/12 11:19:15;;;;;;;6.85;4.13;;;;;;;;;;5000571;28;20592;-89
2022/11/12 11:22:06;;;;;;;6.38;4.25;;;;;;;;;;4995039;28;20102;-84
2022/11/12 11:25:11;;;;;;;5.22;4.10;;;;;;;;;;5008906;28;20407;-86
2022/11/12 11:28:07;;;;;;;8.07;4.10;;;;;;;;;;5008118;28;20042;-84
2022/11/12 11:31:11;;;;;;;7.22;4.32;;;;;;;;;;5006164;28;20061;-86
2022/11/12 11:34:19;;;;;;;6.80;4.03;;;;;;;;;;5008995;28;20049;-86
2022/11/12 11:37:26;;;;;;;6.20;4.18;;;;;;;;;;5008047;28;20057;-86
2022/11/12 11:40:26;;;;;;;5.75;4.38;;;;;;;;;;5006849;28;20077;-84
2022/11/12 11:43:38;;;;;;;7.45;4.38;;;;;;;;;;4993067;28;20064;-86
2022/11/12 11:46:42;;;;;;;4.90;3.80;;;;;;;;;;5004791;28;20044;-84
2022/11/12 11:50:04;;;;;;;6.50;4.30;;;;;;;;;;5006746;28;20123;-86
2022/11/12 11:53:08;;;;;;;6.20;4.40;;;;;;;;;;5006932;28;20138;-88
2022/11/12 11:56:19;;;;;;;6.22;4.10;;;;;;;;;;5008244;28;20111;-87
2022/11/12 11:59:12;;;;;;;6.32;4.32;;;;;;;;;;5009094;28;20586;-86
2022/11/12 12:02:15;;;;;;;7.40;4.05;;;;;;;;;;4994231;28;20123;-87
2022/11/12 12:05:38;;;;;;;4.68;3.50;;;;;;;;;;5002240;28;20518;-88
2022/11/12 12:08:59;;;;;;;5.50;3.80;;;;;;;;;;4980462;28;20045;-87
2022/11/12 12:11:52;;;;;;;6.22;4.00;;;;;;;;;;5005576;28;20045;-86
2022/11/12 12:15:11;;;;;;;5.95;3.85;;;;;;;;;;5004668;28;20046;-84
2022/11/12 12:18:15;;;;;;;6.35;3.80;;;;;;;;;;5005608;28;20069;-87
2022/11/12 12:21:10;;;;;;;9.32;4.15;;;;;;;;;;5005406;28;20072;-86
2022/11/12 12:23:59;;;;;;;5.55;4.10;;;;;;;;;;5006461;28;20049;-86
2022/11/12 12:26:58;;;;;;;6.13;4.13;;;;;;;;;;5004700;28;20435;-85
2022/11/12 12:29:49;;;;;;;5.13;4.00;;;;;;;;;;5003553;28;20092;-86
2022/11/12 12:32:45;;;;;;;4.93;3.85;;;;;;;;;;5004541;28;20100;-85
2022/11/12 12:35:57;;;;;;;5.20;4.00;;;;;;;;;;5004606;28;20048;-85
2022/11/12 12:39:07;;;;;;;5.57;3.92;;;;;;;;;;5005212;28;20045;-86
2022/11/12 12:42:00;;;;;;;6.57;4.88;;;;;;;;;;5006070;28;20049;-86
2022/11/12 12:45:00;;;;;;;8.03;4.30;;;;;;;;;;5005881;28;20068;-86
2022/11/12 12:47:45;;;;;;;5.50;3.83;;;;;;;;;;5005959;28;20108;-85
2022/11/12 12:50:31;;;;;;;5.72;3.83;;;;;;;;;;5005967;28;20057;-87
2022/11/12 12:53:21;;;;;;;7.47;4.53;;;;;;;;;;5004419;28;20064;-86
2022/11/12 12:56:26;;;;;;;5.70;4.22;;;;;;;;;;4989568;28;20458;-86
2022/11/12 12:59:19;;;;;;;7.78;4.40;;;;;;;;;;5004871;28;20430;-87
2022/11/12 13:02:21;;;;;;;6.00;4.27;;;;;;;;;;5004586;28;20061;-85
2022/11/12 13:05:20;;;;;;;7.15;4.50;;;;;;;;;;5003232;28;20647;-87
2022/11/12 13:08:17;;;;;;;6.93;3.70;;;;;;;;;;5004109;28;20049;-87
2022/11/12 13:11:01;;;;;;;8.32;4.10;;;;;;;;;;5005174;28;20069;-85
2022/11/12 13:13:45;;;;;;;6.38;4.40;;;;;;;;;;5002740;28;20053;-85
2022/11/12 13:16:48;;;;;;;6.93;4.57;;;;;;;;;;5003672;28;20106;-86
2022/11/12 13:19:35;;;;;;;5.25;3.80;;;;;;;;;;5004010;28;20066;-87
2022/11/12 13:22:19;;;;;;;20.58;7.28;;;;;;;;;;5004145;28;20077;-86
2022/11/12 13:25:09;;;;;;;49.45;15.88;;;;;;;;;;5000743;28;20054;-85
2022/11/12 13:27:53;;;;;;;37.53;13.48;;;;;;;;;;4999945;28;20073;-87
2022/11/12 13:30:40;;;;;;;21.23;8.52;;;;;;;;;;5003889;28;20049;-86
2022/11/12 13:33:29;;;;;;;28.65;12.55;;;;;;;;;;4988967;28;20052;-83
2022/11/12 13:36:28;;;;;;;45.05;16.80;;;;;;;;;;5004387;28;20518;-85
2022/11/12 13:39:18;;;;;;;54.45;17.88;;;;;;;;;;5004543;28;20049;-87
2022/11/12 13:45:22;;;;;;;12.65;6.07;;;;;;;;;;5001389;28;20510;-88
2022/11/12 13:48:10;;;;;;;8.23;5.10;;;;;;;;;;5000189;28;20049;-86
2022/11/12 13:50:58;;;;;;;6.15;4.65;;;;;;;;;;5003266;28;20034;-85
2022/11/12 13:53:43;;;;;;;6.25;4.13;;;;;;;;;;4986930;28;20078;-84
2022/11/12 13:56:32;;;;;;;6.65;4.32;;;;;;;;;;4984330;28;20050;-87
2022/11/12 13:59:18;;;;;;;6.28;4.30;;;;;;;;;;4985993;28;20530;-84
2022/11/12 14:02:19;;;;;;;7.90;4.60;;;;;;;;;;4971625;28;20073;-86
2022/11/12 14:05:13;;;;;;;5.30;4.03;;;;;;;;;;4986368;28;20054;-87
2022/11/12 14:08:22;;;;;;;5.28;3.63;;;;;;;;;;4987518;28;20098;-87
2022/11/12 14:11:16;;;;;;;5.30;4.10;;;;;;;;;;4987187;28;20066;-87
2022/11/12 14:14:20;;;;;;;6.13;4.28;;;;;;;;;;4985878;28;20093;-87
2022/11/12 14:17:30;;;;;;;8.45;4.30;;;;;;;;;;4987709;28;20183;-87
2022/11/12 14:20:24;;;;;;;5.53;4.03;;;;;;;;;;4987009;28;20041;-86
2022/11/12 14:23:18;;;;;;;5.82;4.18;;;;;;;;;;4986829;28;20046;-88
2022/11/12 14:26:03;;;;;;;8.95;4.53;;;;;;;;;;4988979;28;20056;-87
2022/11/12 14:28:55;;;;;;;6.50;3.80;;;;;;;;;;4990860;28;20050;-88
2022/11/12 14:31:39;;;;;;;8.00;3.92;;;;;;;;;;4990378;28;20057;-87
2022/11/12 14:34:29;;;;;;;7.40;3.92;;;;;;;;;;4989221;28;20070;-87
2022/11/12 14:37:34;;;;;;;6.13;4.13;;;;;;;;;;4990752;28;20053;-87
2022/11/12 14:40:19;;;;;;;5.75;3.90;;;;;;;;;;4990013;28;20049;-87
2022/11/12 14:43:04;;;;;;;6.65;3.90;;;;;;;;;;4985304;28;20046;-87
2022/11/12 14:45:50;;;;;;;7.88;3.90;;;;;;;;;;4974670;28;20037;-85
2022/11/12 14:48:53;;;;;;;6.75;3.88;;;;;;;;;;4988824;28;20053;-86
2022/11/12 14:51:52;;;;;;;6.97;3.80;;;;;;;;;;4990087;28;20042;-84
2022/11/12 14:54:45;;;;;;;6.57;3.70;;;;;;;;;;4988979;28;20088;-86
2022/11/12 14:57:30;;;;;;;6.65;3.88;;;;;;;;;;4990348;28;20111;-86
2022/11/12 15:00:29;;;;;;;8.88;3.90;;;;;;;;;;4989953;28;20058;-86
2022/11/12 15:03:17;;;;;;;5.72;4.10;;;;;;;;;;4990088;28;20081;-86
2022/11/12 15:06:01;;;;;;;6.38;4.13;;;;;;;;;;4988989;28;20108;-86
2022/11/12 15:08:55;;;;;;;7.28;4.07;;;;;;;;;;4989629;28;20118;-86
2022/11/12 15:11:46;;;;;;;5.43;3.70;;;;;;;;;;4989835;28;20070;-87
2022/11/12 15:14:30;;;;;;;5.75;4.15;;;;;;;;;;4988613;28;20073;-88
2022/11/12 15:17:32;;;;;;;8.45;5.60;;;;;;;;;;4989313;28;20049;-85
2022/11/12 15:20:18;;;;;;;9.02;6.05;;;;;;;;;;4989620;28;20054;-86
2022/11/12 15:23:02;;;;;;;7.80;4.93;;;;;;;;;;4988963;28;20057;-85
2022/11/12 15:25:57;;;;;;;6.88;3.70;;;;;;;;;;4983742;28;20260;-84
2022/11/12 15:28:57;;;;;;;6.05;3.53;;;;;;;;;;4988700;28;20073;-87
2022/11/12 15:31:54;;;;;;;5.60;3.35;;;;;;;;;;4987451;28;20081;-89
2022/11/12 15:34:37;;;;;;;5.70;3.75;;;;;;;;;;4994718;28;20041;-89
2022/11/12 15:37:24;;;;;;;4.30;3.10;;;;;;;;;;4997060;28;20049;-88
2022/11/12 15:40:17;;;;;;;7.55;4.20;;;;;;;;;;4991704;28;20080;-89
2022/11/12 15:43:02;;;;;;;9.32;4.90;;;;;;;;;;4996493;28;20053;-89
2022/11/12 15:45:48;;;;;;;21.08;9.10;;;;;;;;;;4995684;28;20061;-88
2022/11/12 15:48:32;;;;;;;24.45;9.38;;;;;;;;;;4996512;28;20125;-88
2022/11/12 15:51:16;;;;;;;;;;;;;;;;;;4997196;28;20056;-88
2022/11/12 15:54:00;;;;;;;15.73;7.18;;;;;;;;;;4997058;28;19932;-88
2022/11/12 15:56:45;;;;;;;13.52;5.90;;;;;;;;;;4997875;28;20065;-88
2022/11/12 15:59:29;;;;;;;5.70;3.60;;;;;;;;;;4992702;28;20126;-87
2022/11/12 16:02:14;;;;;;;6.88;3.60;;;;;;;;;;4996425;28;20110;-88
2022/11/12 16:04:58;;;;;;;4.95;3.15;;;;;;;;;;4995983;28;20462;-89
2022/11/12 16:07:42;;;;;;;6.90;3.65;;;;;;;;;;4993105;28;20144;-90
2022/11/12 16:10:25;;;;;;;6.75;3.38;;;;;;;;;;4994456;28;20041;-88
2022/11/12 16:13:26;;;;;;;5.55;3.25;;;;;;;;;;4978452;28;20134;-89
2022/11/12 16:16:10;;;;;;;4.40;3.40;;;;;;;;;;4993870;28;20554;-88
2022/11/12 16:18:55;;;;;;;4.30;3.17;;;;;;;;;;4995224;28;20120;-87
2022/11/12 16:21:39;;;;;;;4.88;3.30;;;;;;;;;;4992505;28;20097;-88
2022/11/12 16:24:23;;;;;;;5.30;2.97;;;;;;;;;;4997236;28;20122;-87
2022/11/12 16:27:16;;;;;;;;;;;;;;;;;;5004685;28;20100;-84
2022/11/12 16:30:00;;;;;;;8.27;4.32;;;;;;;;;;5005707;28;19920;-84
2022/11/12 16:32:46;;;;;;;8.55;4.45;;;;;;;;;;5004603;28;20050;-86
2022/11/12 16:35:33;;;;;;;10.60;5.40;;;;;;;;;;5006029;28;20138;-85
2022/11/12 16:38:18;;;;;;;6.32;4.28;;;;;;;;;;5006194;28;20049;-84
2022/11/12 16:41:02;;;;;;;8.20;4.20;;;;;;;;;;5007216;28;20105;-86
2022/11/12 16:43:46;;;;;;;8.38;5.20;;;;;;;;;;5005965;28;20041;-86
2022/11/12 16:46:35;;;;;;;15.27;10.02;;;;;;;;;;5005431;28;20049;-86
2022/11/12 16:49:20;;;;;;;13.85;7.05;;;;;;;;;;5003512;28;20084;-85
2022/11/12 16:52:04;;;;;;;12.48;7.93;;;;;;;;;;4986562;28;20088;-86
2022/11/12 16:54:49;;;;;;;17.15;9.43;;;;;;;;;;4997488;28;20080;-86
2022/11/12 16:57:33;;;;;;;14.45;8.15;;;;;;;;;;4993178;28;20128;-88
2022/11/12 17:00:18;;;;;;;12.20;6.75;;;;;;;;;;4994057;28;20139;-88
2022/11/12 17:03:02;;;;;;;4.25;3.10;;;;;;;;;;4995094;28;20124;-87
2022/11/12 17:05:51;;;;;;;4.63;3.25;;;;;;;;;;4997729;28;20065;-87
2022/11/12 17:08:35;;;;;;;9.57;4.72;;;;;;;;;;4997304;28;20506;-88
2022/11/12 17:11:19;;;;;;;;;;;;;;;;;;4995250;28;20041;-86
2022/11/12 17:14:04;;;;;;;9.95;6.13;;;;;;;;;;4993742;28;20389;-86
2022/11/12 17:16:48;;;;;;;10.25;6.60;;;;;;;;;;4995320;28;20084;-86
2022/11/12 17:19:32;;;;;;;9.82;6.38;;;;;;;;;;4992655;28;20057;-88